sensor_id;sensor_type;location;lat;lon;timestamp;P1;durP1;ratioP1;P2;durP2;ratioP2
8353;SDS011;4656;48.090;11.498;2023-02-28T00:01:48;4.75;;;3.13;;
8353;SDS011;4656;48.090;11.498;2023-02-28T00:03:51;3.97;;;3.10;;
8353;SDS011;4656;48.090;11.498;2023-02-28T00:05:53;3.88;;;3.22;;
8353;SDS011;4656;48.090;11.498;2023-02-28T00:07:56;4.22;;;3.13;;
8353;SDS011;4656;48.090;11.498;2023-02-28T00:09:59;3.53;;;2.65;;
8353;SDS011;4656;48.090;11.498;2023-02-28T00:12:01;7.40;;;3.10;;
8353;SDS011;4656;48.090;11.498;2023-02-28T00:14:10;5.10;;;3.40;;
8353;SDS011;4656;48.090;11.498;2023-02-28T00:16:13;4.75;;;3.58;;
8353;SDS011;4656;48.090;11.498;2023-02-28T00:18:15;7.60;;;3.35;;
8353;SDS011;4656;48.090;11.498;2023-02-28T00:20:18;4.97;;;3.58;;
8353;SDS011;4656;48.090;11.498;2023-02-28T00:22:20;3.92;;;3.20;;
8353;SDS011;4656;48.090;11.498;2023-02-28T00:24:24;6.22;;;3.42;;
8353;SDS011;4656;48.090;11.498;2023-02-28T00:26:26;5.22;;;3.72;;
8353;SDS011;4656;48.090;11.498;2023-02-28T00:28:28;6.43;;;3.15;;
8353;SDS011;4656;48.090;11.498;2023-02-28T00:30:30;4.38;;;3.17;;
8353;SDS011;4656;48.090;11.498;2023-02-28T00:32:33;3.40;;;3.10;;
8353;SDS011;4656;48.090;11.498;2023-02-28T00:34:35;4.13;;;3.40;;
8353;SDS011;4656;48.090;11.498;2023-02-28T00:36:37;4.57;;;3.40;;
8353;SDS011;4656;48.090;11.498;2023-02-28T00:38:40;5.20;;;3.30;;
8353;SDS011;4656;48.090;11.498;2023-02-28T00:40:44;3.63;;;3.22;;
8353;SDS011;4656;48.090;11.498;2023-02-28T00:42:46;5.30;;;3.38;;
8353;SDS011;4656;48.090;11.498;2023-02-28T00:44:48;5.80;;;3.75;;
8353;SDS011;4656;48.090;11.498;2023-02-28T00:46:51;5.70;;;3.47;;
8353;SDS011;4656;48.090;11.498;2023-02-28T00:48:54;5.90;;;3.60;;
8353;SDS011;4656;48.090;11.498;2023-02-28T00:50:56;3.38;;;3.08;;
8353;SDS011;4656;48.090;11.498;2023-02-28T00:52:59;6.22;;;3.72;;
8353;SDS011;4656;48.090;11.498;2023-02-28T00:55:01;5.37;;;3.60;;
8353;SDS011;4656;48.090;11.498;2023-02-28T00:57:05;4.60;;;3.33;;
8353;SDS011;4656;48.090;11.498;2023-02-28T00:59:07;4.03;;;3.20;;
8353;SDS011;4656;48.090;11.498;2023-02-28T01:01:09;6.22;;;3.33;;
8353;SDS011;4656;48.090;11.498;2023-02-28T01:03:13;5.15;;;3.53;;
8353;SDS011;4656;48.090;11.498;2023-02-28T01:05:16;5.25;;;3.78;;
8353;SDS011;4656;48.090;11.498;2023-02-28T01:07:18;5.57;;;3.83;;
8353;SDS011;4656;48.090;11.498;2023-02-28T01:09:20;5.50;;;3.63;;
8353;SDS011;4656;48.090;11.498;2023-02-28T01:11:22;4.90;;;3.53;;
8353;SDS011;4656;48.090;11.498;2023-02-28T01:13:26;5.55;;;3.20;;
8353;SDS011;4656;48.090;11.498;2023-02-28T01:15:28;5.75;;;3.80;;
8353;SDS011;4656;48.090;11.498;2023-02-28T01:17:31;3.80;;;3.10;;
8353;SDS011;4656;48.090;11.498;2023-02-28T01:19:34;5.00;;;3.50;;
8353;SDS011;4656;48.090;11.498;2023-02-28T01:21:36;4.43;;;3.17;;
8353;SDS011;4656;48.090;11.498;2023-02-28T01:23:38;4.47;;;3.60;;
8353;SDS011;4656;48.090;11.498;2023-02-28T01:25:41;6.80;;;3.92;;
8353;SDS011;4656;48.090;11.498;2023-02-28T01:27:43;3.65;;;2.83;;
8353;SDS011;4656;48.090;11.498;2023-02-28T01:29:46;4.78;;;3.35;;
8353;SDS011;4656;48.090;11.498;2023-02-28T01:31:48;3.50;;;3.20;;
8353;SDS011;4656;48.090;11.498;2023-02-28T01:33:51;5.28;;;3.60;;
8353;SDS011;4656;48.090;11.498;2023-02-28T01:35:57;5.47;;;3.28;;
8353;SDS011;4656;48.090;11.498;2023-02-28T01:37:59;5.10;;;3.70;;
8353;SDS011;4656;48.090;11.498;2023-02-28T01:40:01;5.70;;;3.65;;
8353;SDS011;4656;48.090;11.498;2023-02-28T01:42:04;6.43;;;3.83;;
8353;SDS011;4656;48.090;11.498;2023-02-28T01:44:06;5.00;;;3.30;;
8353;SDS011;4656;48.090;11.498;2023-02-28T01:46:10;6.93;;;3.72;;
8353;SDS011;4656;48.090;11.498;2023-02-28T01:48:13;4.75;;;3.63;;
8353;SDS011;4656;48.090;11.498;2023-02-28T01:50:18;5.38;;;3.65;;
8353;SDS011;4656;48.090;11.498;2023-02-28T01:52:21;4.60;;;3.78;;
8353;SDS011;4656;48.090;11.498;2023-02-28T01:54:26;7.00;;;3.85;;
8353;SDS011;4656;48.090;11.498;2023-02-28T01:56:29;4.70;;;3.20;;
8353;SDS011;4656;48.090;11.498;2023-02-28T01:58:32;6.80;;;3.80;;
8353;SDS011;4656;48.090;11.498;2023-02-28T02:00:34;4.50;;;3.10;;
8353;SDS011;4656;48.090;11.498;2023-02-28T02:02:40;5.93;;;4.00;;
8353;SDS011;4656;48.090;11.498;2023-02-28T02:04:45;4.80;;;3.35;;
8353;SDS011;4656;48.090;11.498;2023-02-28T02:06:50;6.95;;;3.58;;
8353;SDS011;4656;48.090;11.498;2023-02-28T02:08:52;6.05;;;3.53;;
8353;SDS011;4656;48.090;11.498;2023-02-28T02:10:55;7.10;;;3.78;;
8353;SDS011;4656;48.090;11.498;2023-02-28T02:13:05;4.63;;;3.25;;
8353;SDS011;4656;48.090;11.498;2023-02-28T02:15:11;4.57;;;3.38;;
8353;SDS011;4656;48.090;11.498;2023-02-28T02:17:16;5.53;;;3.65;;
8353;SDS011;4656;48.090;11.498;2023-02-28T02:19:32;4.75;;;3.28;;
8353;SDS011;4656;48.090;11.498;2023-02-28T02:21:54;5.68;;;3.83;;
8353;SDS011;4656;48.090;11.498;2023-02-28T02:24:20;8.73;;;3.83;;
8353;SDS011;4656;48.090;11.498;2023-02-28T02:28:59;5.75;;;3.95;;
8353;SDS011;4656;48.090;11.498;2023-02-28T02:31:14;5.15;;;3.90;;
8353;SDS011;4656;48.090;11.498;2023-02-28T02:33:26;5.50;;;3.55;;
8353;SDS011;4656;48.090;11.498;2023-02-28T02:35:32;5.93;;;3.90;;
8353;SDS011;4656;48.090;11.498;2023-02-28T02:37:38;5.22;;;3.85;;
8353;SDS011;4656;48.090;11.498;2023-02-28T02:39:43;5.82;;;3.70;;
8353;SDS011;4656;48.090;11.498;2023-02-28T02:41:49;5.10;;;3.80;;
8353;SDS011;4656;48.090;11.498;2023-02-28T02:43:54;6.03;;;3.92;;
8353;SDS011;4656;48.090;11.498;2023-02-28T02:45:59;6.60;;;3.85;;
8353;SDS011;4656;48.090;11.498;2023-02-28T02:48:04;4.93;;;3.80;;
8353;SDS011;4656;48.090;11.498;2023-02-28T02:50:11;4.97;;;3.70;;
8353;SDS011;4656;48.090;11.498;2023-02-28T02:52:15;7.85;;;4.20;;
8353;SDS011;4656;48.090;11.498;2023-02-28T02:54:19;7.38;;;4.30;;
8353;SDS011;4656;48.090;11.498;2023-02-28T02:56:23;5.53;;;4.03;;
8353;SDS011;4656;48.090;11.498;2023-02-28T02:58:27;4.35;;;3.47;;
8353;SDS011;4656;48.090;11.498;2023-02-28T03:00:32;7.10;;;3.97;;
8353;SDS011;4656;48.090;11.498;2023-02-28T03:02:36;6.55;;;3.80;;
8353;SDS011;4656;48.090;11.498;2023-02-28T03:04:42;7.40;;;4.00;;
8353;SDS011;4656;48.090;11.498;2023-02-28T03:06:44;6.15;;;3.95;;
8353;SDS011;4656;48.090;11.498;2023-02-28T03:08:48;6.30;;;4.18;;
8353;SDS011;4656;48.090;11.498;2023-02-28T03:10:50;5.10;;;4.03;;
8353;SDS011;4656;48.090;11.498;2023-02-28T03:12:55;6.35;;;4.20;;
8353;SDS011;4656;48.090;11.498;2023-02-28T03:15:03;7.43;;;4.20;;
8353;SDS011;4656;48.090;11.498;2023-02-28T03:19:34;6.47;;;4.18;;
8353;SDS011;4656;48.090;11.498;2023-02-28T03:21:40;6.22;;;4.10;;
8353;SDS011;4656;48.090;11.498;2023-02-28T03:23:45;5.22;;;3.85;;
8353;SDS011;4656;48.090;11.498;2023-02-28T03:25:56;6.90;;;4.40;;
8353;SDS011;4656;48.090;11.498;2023-02-28T03:28:03;4.68;;;3.78;;
8353;SDS011;4656;48.090;11.498;2023-02-28T03:30:09;6.18;;;4.30;;
8353;SDS011;4656;48.090;11.498;2023-02-28T03:32:13;5.05;;;3.97;;
8353;SDS011;4656;48.090;11.498;2023-02-28T03:34:22;6.53;;;3.73;;
8353;SDS011;4656;48.090;11.498;2023-02-28T03:36:26;5.72;;;4.22;;
8353;SDS011;4656;48.090;11.498;2023-02-28T03:38:31;7.20;;;4.10;;
8353;SDS011;4656;48.090;11.498;2023-02-28T03:40:35;8.00;;;4.60;;
8353;SDS011;4656;48.090;11.498;2023-02-28T03:42:41;5.97;;;4.07;;
8353;SDS011;4656;48.090;11.498;2023-02-28T03:44:45;6.40;;;4.22;;
8353;SDS011;4656;48.090;11.498;2023-02-28T03:46:49;6.68;;;4.22;;
8353;SDS011;4656;48.090;11.498;2023-02-28T03:48:55;5.68;;;3.90;;
8353;SDS011;4656;48.090;11.498;2023-02-28T03:50:58;6.63;;;4.45;;
8353;SDS011;4656;48.090;11.498;2023-02-28T03:53:02;9.73;;;4.35;;
8353;SDS011;4656;48.090;11.498;2023-02-28T03:55:06;5.80;;;4.32;;
8353;SDS011;4656;48.090;11.498;2023-02-28T03:57:10;6.53;;;4.68;;
8353;SDS011;4656;48.090;11.498;2023-02-28T03:59:16;7.40;;;4.53;;
8353;SDS011;4656;48.090;11.498;2023-02-28T04:01:21;6.35;;;4.75;;
8353;SDS011;4656;48.090;11.498;2023-02-28T04:03:25;7.63;;;4.60;;
8353;SDS011;4656;48.090;11.498;2023-02-28T04:05:27;6.38;;;4.32;;
8353;SDS011;4656;48.090;11.498;2023-02-28T04:07:31;6.50;;;4.05;;
8353;SDS011;4656;48.090;11.498;2023-02-28T04:09:33;8.38;;;4.55;;
8353;SDS011;4656;48.090;11.498;2023-02-28T04:11:36;8.57;;;4.68;;
8353;SDS011;4656;48.090;11.498;2023-02-28T04:13:38;6.53;;;4.43;;
8353;SDS011;4656;48.090;11.498;2023-02-28T04:15:42;7.15;;;4.68;;
8353;SDS011;4656;48.090;11.498;2023-02-28T04:17:44;8.05;;;5.10;;
8353;SDS011;4656;48.090;11.498;2023-02-28T04:19:46;6.97;;;4.45;;
8353;SDS011;4656;48.090;11.498;2023-02-28T04:21:50;6.67;;;4.60;;
8353;SDS011;4656;48.090;11.498;2023-02-28T04:23:53;6.47;;;4.50;;
8353;SDS011;4656;48.090;11.498;2023-02-28T04:25:55;6.55;;;4.80;;
8353;SDS011;4656;48.090;11.498;2023-02-28T04:27:57;8.55;;;5.40;;
8353;SDS011;4656;48.090;11.498;2023-02-28T04:29:59;7.20;;;4.70;;
8353;SDS011;4656;48.090;11.498;2023-02-28T04:32:03;6.35;;;4.45;;
8353;SDS011;4656;48.090;11.498;2023-02-28T04:34:05;11.20;;;5.25;;
8353;SDS011;4656;48.090;11.498;2023-02-28T04:36:08;7.38;;;5.20;;
8353;SDS011;4656;48.090;11.498;2023-02-28T04:38:10;8.10;;;5.13;;
8353;SDS011;4656;48.090;11.498;2023-02-28T04:40:13;7.78;;;5.25;;
8353;SDS011;4656;48.090;11.498;2023-02-28T04:42:15;8.02;;;5.15;;
8353;SDS011;4656;48.090;11.498;2023-02-28T04:44:17;9.37;;;5.60;;
8353;SDS011;4656;48.090;11.498;2023-02-28T04:46:20;9.90;;;5.68;;
8353;SDS011;4656;48.090;11.498;2023-02-28T04:48:24;8.18;;;5.57;;
8353;SDS011;4656;48.090;11.498;2023-02-28T04:50:26;9.15;;;6.10;;
8353;SDS011;4656;48.090;11.498;2023-02-28T04:52:29;10.48;;;5.95;;
8353;SDS011;4656;48.090;11.498;2023-02-28T04:54:31;8.93;;;6.00;;
8353;SDS011;4656;48.090;11.498;2023-02-28T04:56:33;13.07;;;6.80;;
8353;SDS011;4656;48.090;11.498;2023-02-28T04:58:35;10.38;;;6.90;;
8353;SDS011;4656;48.090;11.498;2023-02-28T05:00:37;9.57;;;6.25;;
8353;SDS011;4656;48.090;11.498;2023-02-28T05:02:40;11.55;;;7.15;;
8353;SDS011;4656;48.090;11.498;2023-02-28T05:04:43;9.83;;;6.77;;
8353;SDS011;4656;48.090;11.498;2023-02-28T05:06:45;9.73;;;6.22;;
8353;SDS011;4656;48.090;11.498;2023-02-28T05:08:48;8.75;;;6.78;;
8353;SDS011;4656;48.090;11.498;2023-02-28T05:10:50;10.02;;;6.47;;
8353;SDS011;4656;48.090;11.498;2023-02-28T05:12:52;9.32;;;6.18;;
8353;SDS011;4656;48.090;11.498;2023-02-28T05:14:54;10.35;;;6.03;;
8353;SDS011;4656;48.090;11.498;2023-02-28T05:16:56;12.48;;;7.05;;
8353;SDS011;4656;48.090;11.498;2023-02-28T05:18:59;21.15;;;10.27;;
8353;SDS011;4656;48.090;11.498;2023-02-28T05:21:02;11.82;;;7.78;;
8353;SDS011;4656;48.090;11.498;2023-02-28T05:23:04;10.30;;;6.57;;
8353;SDS011;4656;48.090;11.498;2023-02-28T05:25:08;12.40;;;8.55;;
8353;SDS011;4656;48.090;11.498;2023-02-28T05:27:11;13.73;;;7.85;;
8353;SDS011;4656;48.090;11.498;2023-02-28T05:29:13;10.53;;;7.17;;
8353;SDS011;4656;48.090;11.498;2023-02-28T05:31:15;12.40;;;7.55;;
8353;SDS011;4656;48.090;11.498;2023-02-28T05:33:17;12.63;;;7.82;;
8353;SDS011;4656;48.090;11.498;2023-02-28T05:35:20;12.13;;;7.68;;
8353;SDS011;4656;48.090;11.498;2023-02-28T05:37:23;15.07;;;8.02;;
8353;SDS011;4656;48.090;11.498;2023-02-28T05:39:26;13.07;;;7.85;;
8353;SDS011;4656;48.090;11.498;2023-02-28T05:41:28;15.15;;;8.63;;
8353;SDS011;4656;48.090;11.498;2023-02-28T05:43:30;13.93;;;8.55;;
8353;SDS011;4656;48.090;11.498;2023-02-28T05:45:32;14.40;;;9.37;;
8353;SDS011;4656;48.090;11.498;2023-02-28T05:47:34;13.48;;;8.20;;
8353;SDS011;4656;48.090;11.498;2023-02-28T05:49:36;13.75;;;8.30;;
8353;SDS011;4656;48.090;11.498;2023-02-28T05:51:39;17.98;;;8.93;;
8353;SDS011;4656;48.090;11.498;2023-02-28T05:53:42;15.00;;;9.50;;
8353;SDS011;4656;48.090;11.498;2023-02-28T05:55:44;13.80;;;9.32;;
8353;SDS011;4656;48.090;11.498;2023-02-28T05:57:48;16.98;;;10.45;;
8353;SDS011;4656;48.090;11.498;2023-02-28T05:59:50;16.00;;;9.95;;
8353;SDS011;4656;48.090;11.498;2023-02-28T06:01:52;15.07;;;10.18;;
8353;SDS011;4656;48.090;11.498;2023-02-28T06:03:55;14.13;;;9.38;;
8353;SDS011;4656;48.090;11.498;2023-02-28T06:05:57;16.02;;;9.95;;
8353;SDS011;4656;48.090;11.498;2023-02-28T06:07:59;18.92;;;10.93;;
8353;SDS011;4656;48.090;11.498;2023-02-28T06:10:03;17.95;;;10.75;;
8353;SDS011;4656;48.090;11.498;2023-02-28T06:12:06;17.95;;;10.98;;
8353;SDS011;4656;48.090;11.498;2023-02-28T06:14:12;16.57;;;10.13;;
8353;SDS011;4656;48.090;11.498;2023-02-28T06:16:15;15.15;;;9.80;;
8353;SDS011;4656;48.090;11.498;2023-02-28T06:18:17;15.48;;;9.93;;
8353;SDS011;4656;48.090;11.498;2023-02-28T06:20:20;14.85;;;9.80;;
8353;SDS011;4656;48.090;11.498;2023-02-28T06:22:23;16.60;;;9.87;;
8353;SDS011;4656;48.090;11.498;2023-02-28T06:24:25;17.60;;;11.77;;
8353;SDS011;4656;48.090;11.498;2023-02-28T06:26:30;14.95;;;10.25;;
8353;SDS011;4656;48.090;11.498;2023-02-28T06:28:32;15.18;;;11.13;;
8353;SDS011;4656;48.090;11.498;2023-02-28T06:30:34;15.98;;;10.70;;
8353;SDS011;4656;48.090;11.498;2023-02-28T06:32:36;17.75;;;10.90;;
8353;SDS011;4656;48.090;11.498;2023-02-28T06:34:39;17.77;;;11.40;;
8353;SDS011;4656;48.090;11.498;2023-02-28T06:36:41;18.10;;;10.48;;
8353;SDS011;4656;48.090;11.498;2023-02-28T06:38:44;18.17;;;11.25;;
8353;SDS011;4656;48.090;11.498;2023-02-28T06:40:52;19.08;;;12.55;;
8353;SDS011;4656;48.090;11.498;2023-02-28T06:42:56;19.00;;;12.00;;
8353;SDS011;4656;48.090;11.498;2023-02-28T06:44:58;19.63;;;12.13;;
8353;SDS011;4656;48.090;11.498;2023-02-28T06:47:03;20.20;;;12.35;;
8353;SDS011;4656;48.090;11.498;2023-02-28T06:49:05;19.13;;;11.52;;
8353;SDS011;4656;48.090;11.498;2023-02-28T06:51:10;20.52;;;12.45;;
8353;SDS011;4656;48.090;11.498;2023-02-28T06:53:13;19.90;;;12.13;;
8353;SDS011;4656;48.090;11.498;2023-02-28T06:55:15;19.80;;;12.00;;
8353;SDS011;4656;48.090;11.498;2023-02-28T06:57:18;17.45;;;12.15;;
8353;SDS011;4656;48.090;11.498;2023-02-28T06:59:21;17.80;;;11.02;;
8353;SDS011;4656;48.090;11.498;2023-02-28T07:01:23;19.05;;;11.63;;
8353;SDS011;4656;48.090;11.498;2023-02-28T07:03:27;18.08;;;11.75;;
8353;SDS011;4656;48.090;11.498;2023-02-28T07:05:30;19.27;;;12.48;;
8353;SDS011;4656;48.090;11.498;2023-02-28T07:07:32;19.30;;;12.02;;
8353;SDS011;4656;48.090;11.498;2023-02-28T07:09:36;20.27;;;13.27;;
8353;SDS011;4656;48.090;11.498;2023-02-28T07:11:38;22.95;;;12.73;;
8353;SDS011;4656;48.090;11.498;2023-02-28T07:13:40;19.38;;;11.48;;
8353;SDS011;4656;48.090;11.498;2023-02-28T07:15:44;20.17;;;12.38;;
8353;SDS011;4656;48.090;11.498;2023-02-28T07:17:46;18.95;;;11.52;;
8353;SDS011;4656;48.090;11.498;2023-02-28T07:19:48;20.70;;;12.50;;
8353;SDS011;4656;48.090;11.498;2023-02-28T07:21:50;23.13;;;13.00;;
8353;SDS011;4656;48.090;11.498;2023-02-28T07:23:52;21.63;;;13.02;;
8353;SDS011;4656;48.090;11.498;2023-02-28T07:25:57;22.77;;;13.80;;
8353;SDS011;4656;48.090;11.498;2023-02-28T07:27:59;19.60;;;11.98;;
8353;SDS011;4656;48.090;11.498;2023-02-28T07:30:01;20.23;;;12.32;;
8353;SDS011;4656;48.090;11.498;2023-02-28T07:32:05;18.95;;;12.18;;
8353;SDS011;4656;48.090;11.498;2023-02-28T07:34:08;19.33;;;12.52;;
8353;SDS011;4656;48.090;11.498;2023-02-28T07:36:11;20.17;;;12.98;;
8353;SDS011;4656;48.090;11.498;2023-02-28T07:38:15;22.88;;;13.52;;
8353;SDS011;4656;48.090;11.498;2023-02-28T07:40:17;23.40;;;13.88;;
8353;SDS011;4656;48.090;11.498;2023-02-28T07:42:19;24.27;;;12.85;;
8353;SDS011;4656;48.090;11.498;2023-02-28T07:44:21;23.42;;;14.10;;
8353;SDS011;4656;48.090;11.498;2023-02-28T07:46:23;23.48;;;13.95;;
8353;SDS011;4656;48.090;11.498;2023-02-28T07:48:27;24.33;;;14.90;;
8353;SDS011;4656;48.090;11.498;2023-02-28T07:50:30;23.75;;;13.93;;
8353;SDS011;4656;48.090;11.498;2023-02-28T07:52:32;25.92;;;15.48;;
8353;SDS011;4656;48.090;11.498;2023-02-28T07:54:34;23.88;;;14.98;;
8353;SDS011;4656;48.090;11.498;2023-02-28T07:56:36;25.45;;;15.43;;
8353;SDS011;4656;48.090;11.498;2023-02-28T07:58:38;21.17;;;13.63;;
8353;SDS011;4656;48.090;11.498;2023-02-28T08:00:41;25.48;;;14.70;;
8353;SDS011;4656;48.090;11.498;2023-02-28T08:02:43;22.85;;;14.20;;
8353;SDS011;4656;48.090;11.498;2023-02-28T08:04:46;26.55;;;15.13;;
8353;SDS011;4656;48.090;11.498;2023-02-28T08:06:48;22.60;;;14.45;;
8353;SDS011;4656;48.090;11.498;2023-02-28T08:08:52;27.35;;;15.90;;
8353;SDS011;4656;48.090;11.498;2023-02-28T08:10:57;24.10;;;14.83;;
8353;SDS011;4656;48.090;11.498;2023-02-28T08:12:59;22.80;;;14.90;;
8353;SDS011;4656;48.090;11.498;2023-02-28T08:15:02;25.27;;;14.80;;
8353;SDS011;4656;48.090;11.498;2023-02-28T08:17:04;24.33;;;15.13;;
8353;SDS011;4656;48.090;11.498;2023-02-28T08:19:06;23.35;;;14.48;;
8353;SDS011;4656;48.090;11.498;2023-02-28T08:21:10;23.55;;;15.35;;
8353;SDS011;4656;48.090;11.498;2023-02-28T08:23:12;26.52;;;16.15;;
8353;SDS011;4656;48.090;11.498;2023-02-28T08:25:15;25.65;;;15.88;;
8353;SDS011;4656;48.090;11.498;2023-02-28T08:27:17;24.85;;;16.08;;
8353;SDS011;4656;48.090;11.498;2023-02-28T08:29:19;25.27;;;16.38;;
8353;SDS011;4656;48.090;11.498;2023-02-28T08:31:21;24.23;;;14.45;;
8353;SDS011;4656;48.090;11.498;2023-02-28T08:33:23;21.23;;;14.50;;
8353;SDS011;4656;48.090;11.498;2023-02-28T08:35:26;19.50;;;12.50;;
8353;SDS011;4656;48.090;11.498;2023-02-28T08:37:29;22.10;;;13.95;;
8353;SDS011;4656;48.090;11.498;2023-02-28T08:39:33;23.23;;;14.60;;
8353;SDS011;4656;48.090;11.498;2023-02-28T08:41:35;20.45;;;13.32;;
8353;SDS011;4656;48.090;11.498;2023-02-28T08:43:38;25.02;;;14.63;;
8353;SDS011;4656;48.090;11.498;2023-02-28T08:45:40;21.42;;;13.80;;
8353;SDS011;4656;48.090;11.498;2023-02-28T08:47:42;22.15;;;14.90;;
8353;SDS011;4656;48.090;11.498;2023-02-28T08:49:44;22.73;;;15.13;;
8353;SDS011;4656;48.090;11.498;2023-02-28T08:51:46;24.55;;;15.90;;
8353;SDS011;4656;48.090;11.498;2023-02-28T08:53:50;26.20;;;15.15;;
8353;SDS011;4656;48.090;11.498;2023-02-28T08:55:56;21.85;;;14.77;;
8353;SDS011;4656;48.090;11.498;2023-02-28T08:57:58;25.00;;;15.93;;
8353;SDS011;4656;48.090;11.498;2023-02-28T09:00:01;23.90;;;15.13;;
8353;SDS011;4656;48.090;11.498;2023-02-28T09:02:04;24.10;;;15.10;;
8353;SDS011;4656;48.090;11.498;2023-02-28T09:04:06;26.73;;;16.73;;
8353;SDS011;4656;48.090;11.498;2023-02-28T09:06:10;25.27;;;15.70;;
8353;SDS011;4656;48.090;11.498;2023-02-28T09:08:12;24.85;;;15.48;;
8353;SDS011;4656;48.090;11.498;2023-02-28T09:10:16;25.55;;;15.88;;
8353;SDS011;4656;48.090;11.498;2023-02-28T09:12:18;27.98;;;16.73;;
8353;SDS011;4656;48.090;11.498;2023-02-28T09:14:21;22.98;;;15.27;;
8353;SDS011;4656;48.090;11.498;2023-02-28T09:16:23;24.95;;;16.50;;
8353;SDS011;4656;48.090;11.498;2023-02-28T09:18:25;23.80;;;15.05;;
8353;SDS011;4656;48.090;11.498;2023-02-28T09:20:27;23.38;;;15.75;;
8353;SDS011;4656;48.090;11.498;2023-02-28T09:22:30;25.10;;;15.77;;
8353;SDS011;4656;48.090;11.498;2023-02-28T09:24:35;25.73;;;16.03;;
8353;SDS011;4656;48.090;11.498;2023-02-28T09:26:39;26.40;;;15.38;;
8353;SDS011;4656;48.090;11.498;2023-02-28T09:28:41;26.15;;;16.48;;
8353;SDS011;4656;48.090;11.498;2023-02-28T09:30:44;25.95;;;17.60;;
8353;SDS011;4656;48.090;11.498;2023-02-28T09:32:47;26.75;;;17.05;;
8353;SDS011;4656;48.090;11.498;2023-02-28T09:34:52;31.48;;;18.27;;
8353;SDS011;4656;48.090;11.498;2023-02-28T09:36:54;26.95;;;17.02;;
8353;SDS011;4656;48.090;11.498;2023-02-28T09:38:56;27.48;;;18.42;;
8353;SDS011;4656;48.090;11.498;2023-02-28T09:41:00;26.10;;;16.67;;
8353;SDS011;4656;48.090;11.498;2023-02-28T09:43:03;24.50;;;16.50;;
8353;SDS011;4656;48.090;11.498;2023-02-28T09:45:21;24.85;;;15.93;;
8353;SDS011;4656;48.090;11.498;2023-02-28T09:47:25;24.05;;;16.30;;
8353;SDS011;4656;48.090;11.498;2023-02-28T09:49:31;23.27;;;16.13;;
8353;SDS011;4656;48.090;11.498;2023-02-28T09:51:39;26.08;;;16.20;;
8353;SDS011;4656;48.090;11.498;2023-02-28T09:53:42;32.50;;;18.30;;
8353;SDS011;4656;48.090;11.498;2023-02-28T09:55:45;27.23;;;16.92;;
8353;SDS011;4656;48.090;11.498;2023-02-28T09:57:50;25.88;;;16.95;;
8353;SDS011;4656;48.090;11.498;2023-02-28T10:00:01;24.05;;;16.35;;
8353;SDS011;4656;48.090;11.498;2023-02-28T10:02:12;25.85;;;15.93;;
8353;SDS011;4656;48.090;11.498;2023-02-28T10:04:16;26.93;;;16.93;;
8353;SDS011;4656;48.090;11.498;2023-02-28T10:06:20;26.13;;;18.17;;
8353;SDS011;4656;48.090;11.498;2023-02-28T10:08:25;25.40;;;17.05;;
8353;SDS011;4656;48.090;11.498;2023-02-28T10:10:29;27.30;;;16.30;;
8353;SDS011;4656;48.090;11.498;2023-02-28T10:12:32;29.02;;;18.33;;
8353;SDS011;4656;48.090;11.498;2023-02-28T10:14:34;28.10;;;18.02;;
8353;SDS011;4656;48.090;11.498;2023-02-28T10:16:38;25.75;;;17.35;;
8353;SDS011;4656;48.090;11.498;2023-02-28T10:18:46;25.67;;;17.27;;
8353;SDS011;4656;48.090;11.498;2023-02-28T10:20:49;31.80;;;18.45;;
8353;SDS011;4656;48.090;11.498;2023-02-28T10:22:53;28.60;;;18.88;;
8353;SDS011;4656;48.090;11.498;2023-02-28T10:24:59;26.75;;;17.85;;
8353;SDS011;4656;48.090;11.498;2023-02-28T10:27:06;26.45;;;17.45;;
8353;SDS011;4656;48.090;11.498;2023-02-28T10:29:13;30.38;;;18.77;;
8353;SDS011;4656;48.090;11.498;2023-02-28T10:31:15;33.03;;;19.85;;
8353;SDS011;4656;48.090;11.498;2023-02-28T10:33:22;31.03;;;19.80;;
8353;SDS011;4656;48.090;11.498;2023-02-28T10:35:25;31.23;;;19.60;;
8353;SDS011;4656;48.090;11.498;2023-02-28T10:37:27;29.55;;;18.30;;
8353;SDS011;4656;48.090;11.498;2023-02-28T10:39:35;25.20;;;16.02;;
8353;SDS011;4656;48.090;11.498;2023-02-28T10:41:38;27.42;;;17.60;;
8353;SDS011;4656;48.090;11.498;2023-02-28T10:43:44;29.77;;;18.73;;
8353;SDS011;4656;48.090;11.498;2023-02-28T10:45:52;32.63;;;19.95;;
8353;SDS011;4656;48.090;11.498;2023-02-28T10:47:57;31.58;;;19.95;;
8353;SDS011;4656;48.090;11.498;2023-02-28T10:50:01;29.92;;;20.00;;
8353;SDS011;4656;48.090;11.498;2023-02-28T10:52:08;31.60;;;20.42;;
8353;SDS011;4656;48.090;11.498;2023-02-28T10:54:15;31.63;;;21.52;;
8353;SDS011;4656;48.090;11.498;2023-02-28T10:56:18;31.58;;;20.10;;
8353;SDS011;4656;48.090;11.498;2023-02-28T10:58:21;23.83;;;16.73;;
8353;SDS011;4656;48.090;11.498;2023-02-28T11:00:25;25.83;;;16.20;;
8353;SDS011;4656;48.090;11.498;2023-02-28T11:02:29;22.52;;;15.00;;
8353;SDS011;4656;48.090;11.498;2023-02-28T11:04:33;22.05;;;15.38;;
8353;SDS011;4656;48.090;11.498;2023-02-28T11:06:39;20.23;;;15.15;;
8353;SDS011;4656;48.090;11.498;2023-02-28T11:08:45;18.42;;;13.75;;
8353;SDS011;4656;48.090;11.498;2023-02-28T11:10:48;20.92;;;13.38;;
8353;SDS011;4656;48.090;11.498;2023-02-28T11:12:53;17.05;;;12.65;;
8353;SDS011;4656;48.090;11.498;2023-02-28T11:14:57;17.83;;;12.50;;
8353;SDS011;4656;48.090;11.498;2023-02-28T11:17:01;17.23;;;12.18;;
8353;SDS011;4656;48.090;11.498;2023-02-28T11:19:05;19.25;;;13.23;;
8353;SDS011;4656;48.090;11.498;2023-02-28T11:21:09;17.52;;;12.25;;
8353;SDS011;4656;48.090;11.498;2023-02-28T11:23:13;15.27;;;11.15;;
8353;SDS011;4656;48.090;11.498;2023-02-28T11:25:18;13.38;;;10.60;;
8353;SDS011;4656;48.090;11.498;2023-02-28T11:27:25;12.23;;;9.57;;
8353;SDS011;4656;48.090;11.498;2023-02-28T11:29:28;14.88;;;9.85;;
8353;SDS011;4656;48.090;11.498;2023-02-28T11:31:30;12.85;;;9.35;;
8353;SDS011;4656;48.090;11.498;2023-02-28T11:33:40;13.70;;;9.68;;
8353;SDS011;4656;48.090;11.498;2023-02-28T11:35:42;14.97;;;11.40;;
8353;SDS011;4656;48.090;11.498;2023-02-28T11:37:44;16.52;;;12.35;;
8353;SDS011;4656;48.090;11.498;2023-02-28T11:39:48;14.20;;;11.52;;
8353;SDS011;4656;48.090;11.498;2023-02-28T11:41:54;16.08;;;11.32;;
8353;SDS011;4656;48.090;11.498;2023-02-28T11:44:05;16.85;;;12.00;;
8353;SDS011;4656;48.090;11.498;2023-02-28T11:46:16;18.00;;;11.20;;
8353;SDS011;4656;48.090;11.498;2023-02-28T11:48:21;15.27;;;10.65;;
8353;SDS011;4656;48.090;11.498;2023-02-28T11:50:34;15.70;;;11.45;;
8353;SDS011;4656;48.090;11.498;2023-02-28T11:52:42;17.13;;;11.98;;
8353;SDS011;4656;48.090;11.498;2023-02-28T11:54:53;20.17;;;11.82;;
8353;SDS011;4656;48.090;11.498;2023-02-28T11:56:58;16.30;;;11.48;;
8353;SDS011;4656;48.090;11.498;2023-02-28T11:59:07;16.87;;;10.83;;
8353;SDS011;4656;48.090;11.498;2023-02-28T12:01:15;17.13;;;11.52;;
8353;SDS011;4656;48.090;11.498;2023-02-28T12:03:24;20.80;;;12.88;;
8353;SDS011;4656;48.090;11.498;2023-02-28T12:05:30;17.67;;;11.98;;
8353;SDS011;4656;48.090;11.498;2023-02-28T12:07:34;16.17;;;11.70;;
8353;SDS011;4656;48.090;11.498;2023-02-28T12:09:44;13.57;;;10.32;;
8353;SDS011;4656;48.090;11.498;2023-02-28T12:11:52;15.57;;;10.85;;
8353;SDS011;4656;48.090;11.498;2023-02-28T12:13:57;15.65;;;10.77;;
8353;SDS011;4656;48.090;11.498;2023-02-28T12:18:40;15.45;;;10.93;;
8353;SDS011;4656;48.090;11.498;2023-02-28T12:20:45;16.60;;;12.00;;
8353;SDS011;4656;48.090;11.498;2023-02-28T12:22:49;19.35;;;12.63;;
8353;SDS011;4656;48.090;11.498;2023-02-28T12:27:18;17.63;;;12.43;;
8353;SDS011;4656;48.090;11.498;2023-02-28T12:29:23;19.15;;;13.65;;
8353;SDS011;4656;48.090;11.498;2023-02-28T12:31:27;19.20;;;12.95;;
8353;SDS011;4656;48.090;11.498;2023-02-28T12:33:32;16.83;;;12.30;;
8353;SDS011;4656;48.090;11.498;2023-02-28T12:35:36;15.55;;;11.75;;